Time;durP1;ratioP1;P1;durP2;ratioP2;P2;SDS_P1;SDS_P2;PMS_P1;PMS_P2;Temp;Humidity;BMP_temperature;BMP_pressure;BME280_temperature;BME280_humidity;BME280_pressure;Samples;Min_cycle;Max_cycle;Signal;HPM_P1;HPM_P2
2022/08/29 00:00:17;;;;;;;3.38;3.08;;;20.90;99.90;;;;;;5044532;28;20724;-77
2022/08/29 00:02:45;;;;;;;3.33;3.03;;;20.80;99.90;;;;;;5047425;28;20305;-76
2022/08/29 00:05:12;;;;;;;3.17;2.97;;;20.70;99.90;;;;;;5047642;28;20215;-76
2022/08/29 00:07:41;;;;;;;3.50;3.22;;;20.70;99.90;;;;;;5049390;28;20207;-77
2022/08/29 00:10:09;;;;;;;2.92;2.72;;;20.60;99.90;;;;;;5047995;28;20215;-76
2022/08/29 00:12:37;;;;;;;3.35;2.83;;;20.60;99.90;;;;;;5045233;28;20561;-76
2022/08/29 00:15:05;;;;;;;4.38;3.45;;;20.70;99.90;;;;;;5046045;28;20268;-76
2022/08/29 00:17:33;;;;;;;3.40;3.03;;;20.60;99.90;;;;;;5049592;28;20249;-76
2022/08/29 00:20:00;;;;;;;3.05;2.85;;;20.60;99.90;;;;;;5047223;28;20221;-76
2022/08/29 00:22:27;;;;;;;4.13;3.50;;;20.60;99.90;;;;;;5047514;28;20203;-77
2022/08/29 00:24:56;;;;;;;4.07;3.78;;;20.70;99.90;;;;;;5043851;28;20705;-76
2022/08/29 00:27:23;;;;;;;3.78;3.47;;;20.70;99.90;;;;;;5046314;28;20199;-76
2022/08/29 00:29:50;;;;;;;3.60;3.30;;;20.60;99.90;;;;;;5043537;28;20220;-76
2022/08/29 00:32:17;;;;;;;3.60;3.30;;;20.60;99.90;;;;;;5043687;28;20199;-77
2022/08/29 00:34:44;;;;;;;3.33;3.13;;;20.80;99.90;;;;;;5042854;28;20230;-77
2022/08/29 00:37:11;;;;;;;3.15;2.90;;;20.90;99.90;;;;;;5044554;28;20208;-76
2022/08/29 00:39:38;;;;;;;3.08;2.78;;;21.00;99.90;;;;;;5047018;28;20230;-77
2022/08/29 00:42:07;;;;;;;3.13;2.92;;;21.10;99.90;;;;;;5043817;28;20666;-77
2022/08/29 00:44:34;;;;;;;2.90;2.70;;;21.20;99.90;;;;;;5044450;28;20223;-77
2022/08/29 00:47:07;;;;;;;3.17;2.88;;;21.20;99.90;;;;;;5047845;28;20198;-76
2022/08/29 00:49:39;;;;;;;3.35;3.05;;;21.20;99.90;;;;;;5045960;28;20233;-77
2022/08/29 00:52:12;;;;;;;3.05;2.85;;;21.20;99.90;;;;;;5047516;28;20944;-77
2022/08/29 00:54:40;;;;;;;3.25;3.05;;;21.20;99.90;;;;;;5046355;28;20237;-77
2022/08/29 00:57:08;;;;;;;4.00;3.55;;;21.20;99.90;;;;;;5046431;28;20202;-77
2022/08/29 00:59:40;;;;;;;3.47;3.17;;;21.10;99.90;;;;;;5047329;28;20229;-77
2022/08/29 01:02:09;;;;;;;3.25;3.03;;;21.10;99.90;;;;;;5047588;28;20589;-77
2022/08/29 01:04:38;;;;;;;3.70;3.40;;;21.10;99.90;;;;;;5046008;28;20219;-77
2022/08/29 01:07:05;;;;;;;3.33;3.03;;;21.10;99.90;;;;;;5047269;28;20198;-77
2022/08/29 01:09:35;;;;;;;2.85;2.65;;;21.20;99.90;;;;;;5048966;28;20218;-77
2022/08/29 01:12:14;;;;;;;2.97;2.78;;;21.20;99.90;;;;;;5047852;28;20195;-77
2022/08/29 01:14:47;;;;;;;2.33;2.22;;;21.20;99.90;;;;;;5044140;28;20297;-76
2022/08/29 01:17:19;;;;;;;2.85;2.65;;;21.30;99.90;;;;;;5046499;28;20245;-75
2022/08/29 01:19:54;;;;;;;3.20;2.90;;;21.30;99.90;;;;;;5048095;28;20215;-76
2022/08/29 01:22:33;;;;;;;3.05;2.75;;;21.30;99.90;;;;;;5046390;28;20199;-76
2022/08/29 01:25:04;;;;;;;3.20;2.80;;;21.30;99.90;;;;;;5047173;28;20219;-75
2022/08/29 01:27:34;;;;;;;2.75;2.55;;;21.30;99.90;;;;;;5047621;28;20700;-75
2022/08/29 01:30:01;;;;;;;3.33;2.40;;;21.30;99.90;;;;;;5045910;28;20219;-77
2022/08/29 01:32:30;;;;;;;2.78;2.58;;;21.30;99.90;;;;;;5049092;28;21606;-77
2022/08/29 01:34:57;;;;;;;2.75;2.55;;;21.30;99.90;;;;;;5048046;28;20210;-77
2022/08/29 01:37:28;;;;;;;2.95;2.75;;;21.40;99.90;;;;;;5049947;28;20568;-77
2022/08/29 01:39:56;;;;;;;2.78;2.42;;;21.40;99.90;;;;;;5047581;28;20231;-76
2022/08/29 01:42:24;;;;;;;2.90;2.70;;;21.40;99.90;;;;;;5047878;28;20198;-76
2022/08/29 01:44:54;;;;;;;2.80;2.60;;;21.40;99.90;;;;;;5047437;28;20302;-77
2022/08/29 01:47:24;;;;;;;3.03;2.83;;;21.30;99.90;;;;;;5044730;28;20204;-77
2022/08/29 01:49:51;;;;;;;2.78;2.58;;;21.40;99.90;;;;;;5048995;28;20223;-77
2022/08/29 01:52:18;;;;;;;3.08;2.88;;;21.30;99.90;;;;;;5048910;28;20202;-77
2022/08/29 01:54:46;;;;;;;2.72;2.53;;;21.30;99.90;;;;;;5049114;28;20222;-77
2022/08/29 01:57:15;;;;;;;2.50;2.30;;;21.30;99.90;;;;;;5045281;28;20226;-76
2022/08/29 01:59:45;;;;;;;3.15;2.90;;;21.30;99.90;;;;;;5047187;28;20222;-77
2022/08/29 02:02:17;;;;;;;2.80;2.60;;;21.30;99.90;;;;;;5044015;28;20281;-77
2022/08/29 02:04:45;;;;;;;2.70;2.50;;;21.30;99.90;;;;;;5048268;28;20285;-77
2022/08/29 02:07:16;;;;;;;2.60;2.40;;;21.30;99.90;;;;;;5047139;28;20294;-77
2022/08/29 02:09:43;;;;;;;2.90;2.70;;;21.30;99.90;;;;;;5047386;28;20720;-77
2022/08/29 02:12:11;;;;;;;2.80;2.55;;;21.30;99.90;;;;;;5048304;28;20202;-77
2022/08/29 02:14:38;;;;;;;3.20;2.90;;;21.30;99.90;;;;;;5046239;28;20760;-77
2022/08/29 02:17:07;;;;;;;2.83;2.63;;;21.20;99.90;;;;;;5045155;28;20241;-77
2022/08/29 02:19:36;;;;;;;2.80;2.60;;;21.20;99.90;;;;;;5043973;28;20709;-77
2022/08/29 02:22:04;;;;;;;2.80;2.60;;;21.20;99.90;;;;;;5047423;28;20203;-77
2022/08/29 02:24:31;;;;;;;2.90;2.70;;;21.20;99.90;;;;;;5044617;28;20592;-77
2022/08/29 02:26:59;;;;;;;2.83;2.60;;;21.20;99.90;;;;;;5046267;28;20191;-77
2022/08/29 02:29:28;;;;;;;3.13;2.90;;;21.10;99.90;;;;;;5047900;28;20661;-78
2022/08/29 02:31:55;;;;;;;3.25;2.95;;;21.10;99.90;;;;;;5044736;28;20210;-77
2022/08/29 02:34:23;;;;;;;2.83;2.63;;;21.10;99.90;;;;;;5044851;23;20223;-75
2022/08/29 02:36:51;;;;;;;2.97;2.78;;;21.10;99.90;;;;;;5023318;28;20257;-75
2022/08/29 02:39:19;;;;;;;3.00;2.80;;;21.10;99.90;;;;;;5025177;28;20681;-75
2022/08/29 02:41:46;;;;;;;2.83;2.63;;;21.00;99.90;;;;;;5028535;28;20283;-74
2022/08/29 02:44:13;;;;;;;2.42;2.22;;;21.00;99.90;;;;;;5036933;28;20230;-76
2022/08/29 02:46:40;;;;;;;3.03;2.83;;;21.00;99.90;;;;;;5053254;28;20256;-75
2022/08/29 02:49:07;;;;;;;2.83;2.63;;;21.00;99.90;;;;;;5051632;28;20619;-75
2022/08/29 02:51:36;;;;;;;2.88;2.67;;;21.00;99.90;;;;;;5048877;28;20206;-75
2022/08/29 02:54:04;;;;;;;3.72;2.88;;;21.00;99.90;;;;;;5051143;28;20215;-75
2022/08/29 02:56:31;;;;;;;2.75;2.55;;;21.00;99.90;;;;;;5050773;28;20269;-75
2022/08/29 02:59:00;;;;;;;2.80;2.60;;;20.90;99.90;;;;;;5048056;28;20214;-76
2022/08/29 03:01:27;;;;;;;2.97;2.78;;;20.90;99.90;;;;;;5053658;28;20594;-76
2022/08/29 03:03:54;;;;;;;3.05;2.85;;;20.90;99.90;;;;;;5050880;28;20233;-76
2022/08/29 03:06:22;;;;;;;2.85;2.65;;;20.90;99.90;;;;;;5049196;28;20214;-76
2022/08/29 03:08:51;;;;;;;3.13;2.72;;;20.80;99.90;;;;;;5048751;28;20661;-75
2022/08/29 03:11:18;;;;;;;3.00;2.78;;;20.80;99.90;;;;;;5051060;28;20219;-75
2022/08/29 03:13:46;;;;;;;3.05;2.85;;;20.80;99.90;;;;;;5049126;28;20218;-75
2022/08/29 03:16:13;;;;;;;3.17;2.88;;;20.80;99.90;;;;;;5046452;28;21138;-73
2022/08/29 03:18:40;;;;;;;2.85;2.65;;;20.80;99.90;;;;;;5050252;28;20210;-76
2022/08/29 03:21:15;;;;;;;2.78;2.58;;;20.80;99.90;;;;;;5047217;28;20222;-75
2022/08/29 03:23:42;;;;;;;2.90;2.70;;;20.80;99.90;;;;;;5050562;28;20272;-75
2022/08/29 03:26:10;;;;;;;3.00;2.80;;;20.70;99.90;;;;;;5048036;28;20211;-75
2022/08/29 03:28:37;;;;;;;3.10;2.90;;;20.70;99.90;;;;;;5050987;28;20230;-75
2022/08/29 03:31:05;;;;;;;3.28;2.90;;;20.70;99.90;;;;;;5046230;28;20226;-75
2022/08/29 03:33:32;;;;;;;4.60;3.30;;;20.70;99.90;;;;;;5050670;28;20309;-75
2022/08/29 03:35:59;;;;;;;3.35;3.13;;;20.70;99.90;;;;;;5048547;28;20227;-75
2022/08/29 03:38:26;;;;;;;3.15;2.95;;;20.70;99.90;;;;;;5051155;28;20202;-75
2022/08/29 03:40:53;;;;;;;3.05;2.85;;;20.60;99.90;;;;;;5051118;28;20704;-76
2022/08/29 03:43:21;;;;;;;3.13;2.92;;;20.60;99.90;;;;;;5051027;28;20211;-76
2022/08/29 03:45:49;;;;;;;2.88;2.67;;;20.60;99.90;;;;;;5050402;28;20223;-76
2022/08/29 03:48:16;;;;;;;3.17;2.97;;;20.60;99.90;;;;;;5051485;28;20294;-75
2022/08/29 03:50:43;;;;;;;4.85;2.75;;;20.60;99.90;;;;;;5049199;28;20241;-75
2022/08/29 03:53:10;;;;;;;2.83;2.63;;;20.60;99.90;;;;;;5052355;28;20195;-75
2022/08/29 03:55:38;;;;;;;3.15;2.95;;;20.60;99.90;;;;;;5052017;28;20219;-75
2022/08/29 03:58:05;;;;;;;2.90;2.70;;;20.50;99.90;;;;;;5049929;28;20656;-76
2022/08/29 04:00:33;;;;;;;3.15;2.67;;;20.50;99.90;;;;;;5048829;28;20215;-76
2022/08/29 04:03:01;;;;;;;2.95;2.75;;;20.50;99.90;;;;;;5053174;28;20202;-74
2022/08/29 04:05:28;;;;;;;2.97;2.78;;;20.40;99.90;;;;;;5053218;28;20225;-76
2022/08/29 04:07:57;;;;;;;5.50;2.63;;;20.40;99.90;;;;;;5050917;28;20584;-75
2022/08/29 04:10:26;;;;;;;3.10;2.90;;;20.40;99.90;;;;;;5052269;28;20219;-76
2022/08/29 04:12:53;;;;;;;2.92;2.72;;;20.40;99.90;;;;;;5049562;28;20191;-75
2022/08/29 04:15:21;;;;;;;2.83;2.63;;;20.40;99.90;;;;;;5052813;28;20227;-75
2022/08/29 04:17:53;;;;;;;3.05;2.85;;;20.40;99.90;;;;;;5053454;28;20214;-75
2022/08/29 04:20:20;;;;;;;2.10;2.00;;;20.40;99.90;;;;;;5049994;28;20305;-75
2022/08/29 04:22:48;;;;;;;2.80;2.60;;;20.40;99.90;;;;;;5050591;28;20195;-76
2022/08/29 04:25:17;;;;;;;2.20;2.10;;;20.40;99.90;;;;;;5045353;28;20234;-76
2022/08/29 04:27:44;;;;;;;2.20;2.10;;;20.40;99.90;;;;;;5047882;28;20218;-78
2022/08/29 04:30:15;;;;;;;2.33;2.22;;;20.30;99.90;;;;;;5047320;28;20219;-75
2022/08/29 04:32:43;;;;;;;2.13;2.03;;;20.20;99.90;;;;;;5048496;28;20264;-76
2022/08/29 04:35:13;;;;;;;2.40;2.28;;;20.10;99.90;;;;;;5046073;28;20641;-76
2022/08/29 04:37:42;;;;;;;2.72;2.53;;;20.00;99.90;;;;;;5044676;28;20214;-76
2022/08/29 04:40:11;;;;;;;2.20;2.10;;;20.00;99.90;;;;;;5046910;28;20219;-76
2022/08/29 04:42:38;;;;;;;2.60;2.40;;;19.90;99.90;;;;;;5045900;28;20199;-76
2022/08/29 04:45:12;;;;;;;2.20;2.10;;;19.90;99.90;;;;;;5049100;28;20230;-76
2022/08/29 04:47:39;;;;;;;2.72;2.53;;;19.80;99.90;;;;;;5045138;28;20285;-76
2022/08/29 04:50:07;;;;;;;2.70;2.50;;;19.80;99.90;;;;;;5048862;28;20223;-76
2022/08/29 04:52:36;;;;;;;2.65;2.45;;;19.80;99.90;;;;;;5049134;28;20194;-77
2022/08/29 04:55:03;;;;;;;2.45;2.25;;;19.70;99.90;;;;;;5045485;28;20338;-77
2022/08/29 04:57:30;;;;;;;2.95;2.75;;;19.80;99.90;;;;;;5049588;28;20222;-76
2022/08/29 04:59:59;;;;;;;2.78;2.55;;;19.70;99.90;;;;;;5048361;28;20222;-76
2022/08/29 05:02:27;;;;;;;2.33;2.13;;;19.70;99.90;;;;;;5045207;28;20215;-76
2022/08/29 05:04:55;;;;;;;2.28;2.17;;;19.80;99.90;;;;;;5044825;28;20223;-76
2022/08/29 05:07:24;;;;;;;2.22;2.13;;;19.80;99.90;;;;;;5044773;28;20191;-77
2022/08/29 05:09:57;;;;;;;2.65;2.25;;;19.80;99.90;;;;;;5046067;28;20294;-76
2022/08/29 05:12:24;;;;;;;2.17;1.80;;;19.90;99.90;;;;;;5047918;28;20191;-78
2022/08/29 05:14:52;;;;;;;1.95;1.85;;;20.00;99.90;;;;;;5046703;28;20227;-76
2022/08/29 05:17:19;;;;;;;2.22;2.13;;;20.20;99.90;;;;;;5046359;28;20220;-76
2022/08/29 05:19:46;;;;;;;2.30;2.10;;;20.40;99.90;;;;;;5045161;28;20214;-76
2022/08/29 05:22:14;;;;;;;1.98;1.88;;;20.60;99.90;;;;;;5041369;28;20199;-76
2022/08/29 05:24:41;;;;;;;2.50;2.30;;;20.80;99.90;;;;;;5048337;28;20701;-76
2022/08/29 05:27:11;;;;;;;2.42;2.30;;;21.10;99.90;;;;;;5052332;28;20648;-77
2022/08/29 05:29:40;;;;;;;2.13;2.03;;;21.30;99.90;;;;;;5050015;28;20238;-76
2022/08/29 05:32:07;;;;;;;2.38;2.17;;;21.50;99.90;;;;;;5054722;28;20207;-77
2022/08/29 05:34:34;;;;;;;2.30;2.10;;;21.70;99.90;;;;;;5045783;28;20226;-77
2022/08/29 05:37:03;;;;;;;1.83;1.73;;;21.90;99.90;;;;;;5048700;28;20595;-78
2022/08/29 05:39:30;;;;;;;2.47;1.73;;;22.00;99.90;;;;;;5050853;28;20227;-76
2022/08/29 05:41:58;;;;;;;2.00;1.90;;;21.90;99.90;;;;;;5051206;28;20206;-77
2022/08/29 05:44:28;;;;;;;1.98;1.83;;;21.80;99.90;;;;;;5049700;28;20218;-76
2022/08/29 05:46:55;;;;;;;1.77;1.60;;;21.90;99.90;;;;;;5049901;28;20191;-77
2022/08/29 05:49:22;;;;;;;1.90;1.80;;;22.20;99.90;;;;;;5048937;28;20202;-76
2022/08/29 05:51:53;;;;;;;2.78;2.35;;;22.40;99.90;;;;;;5049280;28;20191;-76
2022/08/29 05:54:20;;;;;;;2.33;2.00;;;22.80;99.90;;;;;;5047467;28;20221;-76
2022/08/29 05:56:47;;;;;;;6.30;2.47;;;23.10;99.90;;;;;;5047811;28;20773;-76
2022/08/29 05:59:17;;;;;;;1.88;1.77;;;23.40;99.90;;;;;;5041153;28;21608;-75
2022/08/29 06:01:46;;;;;;;1.63;1.52;;;23.60;99.90;;;;;;5042486;28;20210;-77
2022/08/29 06:04:13;;;;;;;2.15;2.05;;;23.80;99.90;;;;;;5042059;28;20305;-77
2022/08/29 06:06:41;;;;;;;2.25;1.95;;;23.90;99.90;;;;;;5044437;28;20256;-76
2022/08/29 06:09:09;;;;;;;4.63;2.05;;;23.90;99.90;;;;;;5045354;28;20195;-76
2022/08/29 06:11:36;;;;;;;2.30;2.13;;;23.70;99.90;;;;;;5042524;28;20202;-74
2022/08/29 06:14:03;;;;;;;2.40;2.20;;;23.60;99.90;;;;;;5037456;28;20215;-77
2022/08/29 06:16:31;;;;;;;3.30;2.05;;;23.60;99.90;;;;;;5040645;28;20229;-77
2022/08/29 06:19:00;;;;;;;2.17;2.08;;;23.70;99.90;;;;;;5044864;28;20203;-77
2022/08/29 06:21:27;;;;;;;3.45;2.30;;;23.60;99.90;;;;;;5045459;28;20215;-77
2022/08/29 06:23:55;;;;;;;2.10;1.90;;;23.40;99.90;;;;;;5049312;28;20233;-78
2022/08/29 06:26:30;;;;;;;2.65;2.28;;;23.20;99.90;;;;;;5047713;28;20218;-77
2022/08/29 06:29:16;;;;;;;2.33;2.22;;;23.30;99.90;;;;;;5031145;28;20302;-77
2022/08/29 06:31:49;;;;;;;3.15;2.30;;;23.40;99.90;;;;;;5047491;28;20298;-75
2022/08/29 06:34:18;;;;;;;2.58;2.38;;;23.50;99.90;;;;;;5041926;28;20251;-76
2022/08/29 06:36:45;;;;;;;3.10;2.53;;;23.50;99.90;;;;;;5046141;28;20215;-76
2022/08/29 06:39:12;;;;;;;2.53;2.42;;;23.50;99.90;;;;;;5044955;28;20195;-75
2022/08/29 06:41:40;;;;;;;3.03;2.50;;;23.60;99.90;;;;;;5048336;28;20209;-76
2022/08/29 06:44:08;;;;;;;2.42;2.22;;;23.80;99.90;;;;;;5048635;28;20223;-79
2022/08/29 06:46:38;;;;;;;2.17;2.08;;;24.10;99.90;;;;;;5045113;28;20641;-77
2022/08/29 06:49:07;;;;;;;2.47;2.28;;;24.30;99.90;;;;;;5044885;28;20227;-78
2022/08/29 06:51:38;;;;;;;2.95;2.45;;;24.40;99.90;;;;;;5047430;28;20260;-77
2022/08/29 06:54:08;;;;;;;2.50;2.30;;;24.10;99.90;;;;;;5044609;28;20207;-75
2022/08/29 06:56:36;;;;;;;2.28;2.15;;;23.90;99.90;;;;;;5044079;28;20222;-78
2022/08/29 06:59:03;;;;;;;2.67;2.33;;;24.00;99.90;;;;;;5045645;28;20206;-77
2022/08/29 07:01:30;;;;;;;3.55;2.75;;;24.20;99.90;;;;;;5043545;28;20218;-76
2022/08/29 07:03:58;;;;;;;2.53;2.33;;;24.40;99.90;;;;;;5045007;28;20257;-77
2022/08/29 07:06:26;;;;;;;4.97;2.53;;;24.50;99.90;;;;;;5042713;28;20776;-77
2022/08/29 07:08:55;;;;;;;2.28;2.08;;;24.50;99.90;;;;;;5045490;28;20621;-77
2022/08/29 07:11:23;;;;;;;2.55;2.35;;;24.70;99.90;;;;;;5041848;28;20272;-76
2022/08/29 07:13:50;;;;;;;2.95;2.72;;;24.70;99.90;;;;;;5044094;28;20226;-77
2022/08/29 07:16:17;;;;;;;3.97;2.63;;;24.70;99.90;;;;;;5042655;28;20696;-77
2022/08/29 07:18:44;;;;;;;2.53;2.28;;;24.70;99.90;;;;;;5043632;28;20254;-76
2022/08/29 07:21:14;;;;;;;2.30;2.20;;;24.80;99.90;;;;;;5045500;28;20218;-77
2022/08/29 07:23:41;;;;;;;2.53;2.33;;;24.90;99.90;;;;;;5042437;28;20219;-76
2022/08/29 07:26:11;;;;;;;3.22;2.00;;;25.10;99.90;;;;;;5046260;28;20222;-76
2022/08/29 07:28:39;;;;;;;2.42;2.22;;;25.20;99.90;;;;;;5041266;28;20783;-78
2022/08/29 07:31:06;;;;;;;2.42;2.22;;;25.30;99.90;;;;;;5039248;28;20227;-77
2022/08/29 07:33:33;;;;;;;2.45;2.25;;;25.40;99.90;;;;;;5042732;28;20230;-75
2022/08/29 07:36:01;;;;;;;2.33;2.13;;;25.50;99.90;;;;;;5040714;28;20821;-77
2022/08/29 07:38:31;;;;;;;2.50;2.30;;;25.70;99.90;;;;;;5044951;28;20437;-76
2022/08/29 07:40:59;;;;;;;2.30;2.10;;;26.00;99.90;;;;;;5046030;28;20214;-77
2022/08/29 07:43:28;;;;;;;2.92;2.00;;;26.40;99.90;;;;;;5044166;28;20219;-76
2022/08/29 07:45:55;;;;;;;2.40;2.20;;;26.60;99.90;;;;;;5040625;28;20226;-75
2022/08/29 07:48:23;;;;;;;4.72;2.67;;;26.60;99.90;;;;;;5044999;28;20190;-76
2022/08/29 07:50:51;;;;;;;2.08;1.98;;;26.40;99.90;;;;;;5046568;28;20253;-76
2022/08/29 07:53:19;;;;;;;3.33;2.78;;;26.30;99.90;;;;;;5044352;28;20709;-74
2022/08/29 07:55:47;;;;;;;2.50;2.30;;;26.20;99.90;;;;;;5043863;28;20214;-77
2022/08/29 07:58:14;;;;;;;2.72;2.53;;;26.10;99.90;;;;;;5038633;28;20215;-75
2022/08/29 08:00:43;;;;;;;2.30;2.10;;;26.10;99.90;;;;;;5042737;28;20222;-75
2022/08/29 08:03:11;;;;;;;2.30;2.10;;;26.20;99.90;;;;;;5031546;28;20679;-77
2022/08/29 08:05:38;;;;;;;2.63;2.42;;;26.30;99.90;;;;;;5035772;28;20779;-75
2022/08/29 08:08:08;;;;;;;2.10;2.00;;;26.50;99.90;;;;;;5037235;28;20187;-77
2022/08/29 08:10:35;;;;;;;2.97;2.67;;;26.70;99.90;;;;;;5037868;28;20218;-75
2022/08/29 08:13:02;;;;;;;3.05;2.85;;;26.80;99.90;;;;;;5038575;28;20581;-77
2022/08/29 08:15:29;;;;;;;2.67;2.47;;;26.80;99.90;;;;;;5036900;28;20243;-75
2022/08/29 08:17:58;;;;;;;2.60;2.40;;;26.90;99.90;;;;;;5035709;28;20231;-74
2022/08/29 08:20:25;;;;;;;2.90;2.70;;;26.90;99.90;;;;;;5036603;28;20220;-76
2022/08/29 08:22:53;;;;;;;2.28;2.17;;;26.90;99.90;;;;;;5041641;28;20198;-76
2022/08/29 08:25:20;;;;;;;2.40;2.20;;;27.00;99.90;;;;;;5037337;28;20223;-75
2022/08/29 08:27:47;;;;;;;2.80;2.60;;;27.00;99.90;;;;;;5041340;28;20853;-78
2022/08/29 08:30:14;;;;;;;2.80;2.60;;;27.00;99.90;;;;;;5040747;28;20253;-76
2022/08/29 08:32:42;;;;;;;4.07;2.80;;;27.10;99.90;;;;;;5044775;28;20198;-75
2022/08/29 08:35:11;;;;;;;2.45;2.25;;;27.20;99.90;;;;;;5042356;28;20751;-75
2022/08/29 08:37:38;;;;;;;2.47;2.28;;;27.10;99.90;;;;;;5050353;23;20227;-79
2022/08/29 08:40:06;;;;;;;2.60;2.40;;;27.10;99.90;;;;;;5015526;28;20238;-77
2022/08/29 08:42:41;;;;;;;2.55;2.35;;;27.30;99.90;;;;;;5015387;28;20406;-77
2022/08/29 08:45:11;;;;;;;3.95;2.13;;;27.40;99.90;;;;;;5015075;28;20215;-75
2022/08/29 08:47:44;;;;;;;2.67;2.33;;;27.60;99.90;;;;;;5022444;28;20221;-77
2022/08/29 08:50:19;;;;;;;2.30;2.10;;;27.70;99.90;;;;;;5036042;28;20215;-77
2022/08/29 08:52:52;;;;;;;2.45;2.25;;;27.70;99.90;;;;;;5035710;28;20209;-78
2022/08/29 08:55:28;;;;;;;2.60;2.40;;;27.70;99.90;;;;;;5036077;28;20292;-74
2022/08/29 08:58:02;;;;;;;2.50;2.30;;;27.50;99.90;;;;;;5035021;28;20222;-77
2022/08/29 09:00:39;;;;;;;2.40;2.20;;;27.50;99.90;;;;;;5034821;28;20218;-76
2022/08/29 09:03:17;;;;;;;2.53;2.33;;;27.70;99.90;;;;;;5037769;28;20575;-77
2022/08/29 09:05:59;;;;;;;2.67;2.47;;;28.00;99.90;;;;;;5034903;28;20214;-80
2022/08/29 09:08:39;;;;;;;2.53;2.33;;;28.20;99.90;;;;;;5034887;28;20211;-77
2022/08/29 09:11:15;;;;;;;2.65;2.33;;;27.90;99.90;;;;;;5034911;28;20237;-75
2022/08/29 09:13:51;;;;;;;2.58;2.38;;;27.90;99.90;;;;;;5035834;28;20264;-78
2022/08/29 09:16:29;;;;;;;2.47;2.35;;;28.00;99.90;;;;;;5035827;28;20218;-76
2022/08/29 09:19:01;;;;;;;2.67;2.47;;;27.90;99.90;;;;;;5035602;28;20230;-74
2022/08/29 09:21:37;;;;;;;2.78;2.58;;;27.90;99.90;;;;;;5036175;28;20223;-77
2022/08/29 09:24:08;;;;;;;2.88;2.50;;;28.30;99.90;;;;;;5034012;28;20225;-77
2022/08/29 09:26:35;;;;;;;2.35;2.10;;;28.40;99.90;;;;;;5036449;28;20219;-78
2022/08/29 09:29:07;;;;;;;2.53;2.30;;;28.50;99.90;;;;;;5035081;28;20213;-76
2022/08/29 09:31:35;;;;;;;2.80;2.60;;;28.60;99.90;;;;;;5033167;28;20317;-75
2022/08/29 09:34:04;;;;;;;2.40;2.20;;;28.60;99.90;;;;;;5034122;28;22339;-76
2022/08/29 09:36:42;;;;;;;2.58;2.38;;;28.50;99.90;;;;;;5035046;28;21984;-75
2022/08/29 09:39:18;;;;;;;2.90;2.30;;;28.40;99.90;;;;;;5033846;28;20218;-80
2022/08/29 09:41:48;;;;;;;3.30;3.00;;;28.50;99.90;;;;;;5036017;28;20217;-77
2022/08/29 09:44:20;;;;;;;3.10;2.80;;;28.40;99.90;;;;;;5034236;28;20286;-77
2022/08/29 09:47:03;;;;;;;2.40;2.20;;;28.40;99.90;;;;;;5034512;28;20199;-76
2022/08/29 09:49:30;;;;;;;3.95;2.83;;;28.40;99.90;;;;;;5034102;28;20235;-78
2022/08/29 09:52:10;;;;;;;2.90;2.30;;;28.40;99.90;;;;;;5035658;28;20206;-76
2022/08/29 09:54:37;;;;;;;4.90;3.15;;;28.50;99.90;;;;;;5034766;28;20226;-77
2022/08/29 09:57:12;;;;;;;2.97;2.78;;;28.50;99.90;;;;;;5038245;28;20721;-79
2022/08/29 09:59:42;;;;;;;2.78;2.58;;;28.50;99.90;;;;;;5035379;28;20241;-77
2022/08/29 10:02:20;;;;;;;3.10;2.80;;;28.50;99.90;;;;;;5039957;28;20210;-78
2022/08/29 10:04:51;;;;;;;2.80;2.60;;;28.50;99.90;;;;;;5036008;28;20222;-76
2022/08/29 10:07:23;;;;;;;3.38;2.63;;;28.50;99.90;;;;;;5038087;28;20219;-77
2022/08/29 10:10:00;;;;;;;2.85;2.60;;;28.70;99.90;;;;;;5036366;28;20233;-77
2022/08/29 10:12:36;;;;;;;3.25;2.92;;;28.80;99.90;;;;;;5040074;28;20226;-78
2022/08/29 10:15:09;;;;;;;2.72;2.53;;;28.90;99.90;;;;;;5039468;28;20724;-78
2022/08/29 10:20:41;;;;;;;2.92;2.63;;;29.00;99.90;;;;;;5039809;28;20233;-79
2022/08/29 10:23:20;;;;;;;3.03;2.65;;;29.30;99.90;;;;;;5037216;28;20195;-75
2022/08/29 10:25:47;;;;;;;2.58;2.38;;;29.40;99.90;;;;;;5039869;28;20309;-76
2022/08/29 10:28:21;;;;;;;3.50;3.20;;;29.40;99.90;;;;;;5038491;28;20620;-78
2022/08/29 10:30:56;;;;;;;2.90;2.70;;;29.20;99.90;;;;;;5038066;28;20245;-76
2022/08/29 10:33:46;;;;;;;3.20;3.00;;;29.30;99.90;;;;;;5037663;28;20187;-77
2022/08/29 10:36:18;;;;;;;2.92;2.72;;;29.20;99.90;;;;;;5035722;28;20725;-75
2022/08/29 10:38:54;;;;;;;2.80;2.60;;;29.20;99.90;;;;;;5036911;28;20241;-75
2022/08/29 10:41:34;;;;;;;3.15;2.78;;;29.40;99.90;;;;;;5039948;28;20218;-76
2022/08/29 10:44:11;;;;;;;3.05;2.85;;;29.60;99.90;;;;;;5039470;28;20210;-71
2022/08/29 10:46:49;;;;;;;3.00;2.80;;;29.50;99.90;;;;;;5038604;28;20222;-75
2022/08/29 10:49:25;;;;;;;3.40;3.10;;;29.80;99.90;;;;;;5036074;28;20808;-77
2022/08/29 10:52:04;;;;;;;5.32;4.10;;;29.60;99.90;;;;;;5038859;28;20206;-79
2022/08/29 10:54:48;;;;;;;4.90;3.90;;;29.50;99.90;;;;;;5036608;28;20963;-77
2022/08/29 10:57:28;;;;;;;3.60;3.30;;;29.80;99.90;;;;;;5031622;28;20215;-79
2022/08/29 11:00:03;;;;;;;3.10;2.90;;;29.70;99.90;;;;;;5033175;28;20229;-74
2022/08/29 11:02:35;;;;;;;2.95;2.75;;;29.70;99.90;;;;;;5034856;28;20203;-75
2022/08/29 11:05:09;;;;;;;3.22;2.67;;;29.80;99.90;;;;;;5039102;28;20231;-77
2022/08/29 11:07:43;;;;;;;3.75;2.80;;;29.70;99.90;;;;;;5035022;28;20217;-77
2022/08/29 11:10:16;;;;;;;4.00;3.08;;;29.70;99.90;;;;;;5038813;28;20237;-75
2022/08/29 11:12:50;;;;;;;2.85;2.65;;;29.80;99.90;;;;;;5036955;28;20238;-77
2022/08/29 11:15:24;;;;;;;3.00;2.80;;;29.90;99.90;;;;;;5037718;28;20245;-79
2022/08/29 11:18:00;;;;;;;3.17;2.90;;;30.00;99.90;;;;;;5037924;28;20230;-74
2022/08/29 11:20:34;;;;;;;3.22;2.90;;;30.00;99.90;;;;;;5037434;28;20230;-71
2022/08/29 11:23:08;;;;;;;2.67;2.47;;;29.80;99.90;;;;;;5035898;28;21149;-74
2022/08/29 11:25:40;;;;;;;2.70;2.50;;;29.90;99.90;;;;;;5031705;28;20211;-78
2022/08/29 11:28:19;;;;;;;2.70;2.50;;;30.30;99.90;;;;;;5030506;28;20219;-75
2022/08/29 11:30:51;;;;;;;3.30;3.00;;;30.40;99.90;;;;;;5031047;28;20218;-78
2022/08/29 11:33:31;;;;;;;3.53;2.80;;;30.40;99.90;;;;;;5033130;28;20195;-77
2022/08/29 11:36:20;;;;;;;3.63;3.40;;;30.40;99.90;;;;;;5036727;28;20222;-76
2022/08/29 11:39:11;;;;;;;3.65;2.60;;;30.50;99.90;;;;;;5037086;28;20238;-75
2022/08/29 11:41:42;;;;;;;3.30;3.00;;;30.50;99.90;;;;;;5022672;28;20219;-76
2022/08/29 11:44:17;;;;;;;3.47;3.13;;;30.50;99.90;;;;;;5037481;28;20198;-74
2022/08/29 11:46:47;;;;;;;2.95;2.75;;;30.80;99.90;;;;;;5034080;28;20194;-73
2022/08/29 11:49:44;;;;;;;3.30;3.10;;;31.00;99.90;;;;;;5033841;28;20231;-75
2022/08/29 11:52:20;;;;;;;3.55;3.25;;;31.00;99.90;;;;;;5004498;28;20865;-77
2022/08/29 11:55:13;;;;;;;3.60;3.30;;;31.00;99.90;;;;;;5036753;28;20218;-75
2022/08/29 11:57:54;;;;;;;3.08;2.85;;;31.10;99.90;;;;;;5030354;28;20229;-76
2022/08/29 12:00:44;;;;;;;3.00;2.80;;;30.90;99.90;;;;;;5032716;28;20230;-76
2022/08/29 12:03:53;;;;;;;2.85;2.65;;;30.90;99.90;;;;;;5032449;28;20199;-76
2022/08/29 12:06:38;;;;;;;3.13;2.83;;;30.80;99.90;;;;;;5033850;28;20219;-76
2022/08/29 12:09:17;;;;;;;3.75;2.80;;;30.90;99.90;;;;;;5037080;28;20301;-76
2022/08/29 12:12:33;;;;;;;3.50;3.00;;;31.00;99.90;;;;;;5032330;28;20215;-76
2022/08/29 12:15:01;;;;;;;4.82;3.25;;;30.80;99.90;;;;;;5031667;28;20745;-75
2022/08/29 12:17:44;;;;;;;3.30;3.08;;;30.70;99.90;;;;;;5033032;28;20242;-76
2022/08/29 12:20:18;;;;;;;3.15;2.85;;;30.50;99.90;;;;;;5035770;28;20218;-78
2022/08/29 12:22:55;;;;;;;2.80;2.40;;;30.50;99.90;;;;;;5035959;28;20347;-75
2022/08/29 12:25:45;;;;;;;3.10;2.90;;;30.50;99.90;;;;;;5037660;28;20233;-74
2022/08/29 12:28:38;;;;;;;3.38;3.08;;;30.50;99.90;;;;;;5036936;28;20219;-74
2022/08/29 12:31:30;;;;;;;2.88;2.55;;;30.50;99.90;;;;;;5037909;28;20222;-74
2022/08/29 12:34:18;;;;;;;3.20;2.90;;;30.40;99.90;;;;;;5038455;28;20203;-74
2022/08/29 12:36:59;;;;;;;4.40;2.70;;;30.60;99.90;;;;;;5032811;28;20226;-75
2022/08/29 12:39:47;;;;;;;3.47;2.55;;;30.70;99.90;;;;;;5030638;28;20708;-78
2022/08/29 12:42:26;;;;;;;2.72;2.53;;;30.60;99.90;;;;;;5031944;28;20213;-77
2022/08/29 12:45:01;;;;;;;3.20;2.90;;;30.60;99.90;;;;;;5033241;28;20214;-77
2022/08/29 12:47:34;;;;;;;2.92;2.72;;;30.70;99.90;;;;;;5032755;28;20816;-75
2022/08/29 12:50:05;;;;;;;2.83;2.58;;;30.80;99.90;;;;;;5034999;28;20230;-77
2022/08/29 12:52:35;;;;;;;2.55;2.20;;;30.80;99.90;;;;;;5038094;28;20207;-75
2022/08/29 12:55:21;;;;;;;3.08;2.70;;;30.80;99.90;;;;;;5036917;28;20237;-76
2022/08/29 12:57:48;;;;;;;2.42;2.22;;;30.80;99.90;;;;;;5030455;28;20285;-77
2022/08/29 13:00:21;;;;;;;2.83;2.30;;;30.80;99.90;;;;;;5033156;28;20234;-79
2022/08/29 13:03:02;;;;;;;3.60;2.40;;;30.90;99.90;;;;;;5034796;28;20205;-75
2022/08/29 13:05:31;;;;;;;2.80;2.53;;;30.80;99.90;;;;;;5032343;28;20245;-76
2022/08/29 13:08:00;;;;;;;2.72;2.53;;;30.70;99.90;;;;;;5031167;28;20318;-74
2022/08/29 13:10:28;;;;;;;2.80;2.60;;;30.70;99.90;;;;;;5034453;28;20231;-78